Streetman, TX (75859)

8:32 PM CDT on May 28, 2017 (GMT -0500)
Rustling Oaks | | Change Station
Active Advisory: Severe Thunderstorm Watch

Elev 330 ft 31.95 °N, 96.27 °W | Updated 26 seconds ago

Overcast
Overcast
74.4 °F
Feels Like 73 °F
N
11.0
Wind Variable Wind from NE

Today
High -- | Low -- °F
--% Chance of Precip.
Yesterday
High -- | Low -- °F
Precip. -- in
Pressure 29.92 in
Visibility 10.0 miles
Clouds Scattered Clouds 2400 ft
Overcast 3500 ft
Heat Index 73 °F
Dew Point 71 °F
Humidity 90%
Rainfall 0.51 in
Snow Depth Not available.
6:21 AM 8:24 PM
Waxing Crescent, 15% visible
SPECI KCRS 290112Z AUTO 02006KT 10SM SCT024 OVC035 24/21 A2992 RMK AO2 T02390206
Pressure 29.92 in
Visibility 10.0 miles
Clouds Scattered Clouds 2400 ft
Overcast 3500 ft
Heat Index 73 °F
Dew Point 71 °F
Humidity 90%
Rainfall 0.51 in
Snow Depth Not available.
6:21 AM 8:24 PM
Waxing Crescent, 15% visible
SPECI KCRS 290112Z AUTO 02006KT 10SM SCT024 OVC035 24/21 A2992 RMK AO2 T02390206

Get Your Daily Forecast Email!

Thanks for signing up!

Be on the lookout for a verification email in your inbox.

You'll start receiving severe weather alerts in your inbox..

×

10-Day Weather Forecast

Almanac

Astronomy

May. 28, 2017 Rise Set
Actual Time
Civil Twilight
Nautical Twilight
Astronomical Twilight
Moon
Length of Visible Light
Length of Day
Tomorrow will be .
, % of the Moon is Illuminated

Today's Extremes

State Highs State Lows

Community

WunderPhotos

Category 6

Welcome to Category 6. This is the collective home for Weather Underground's featured writeups by Dr. Jeff Masters (right), Bob Henson (left), Chris Burt, and other regular contributors.

Nearby

Air Quality

  Air Quality AQ Index Pollutant
Not available.

Snow Depth

Station Depth Elevation

Earthquake Activity

City Distance Mag. Time & Date
Minimum magnitude displayed is 2.5.

Coastal Water Temperatures

Place Temperature

Stations

Nearby Weather Stations

Station Location Temp. Windchill Dew Point Humidity Wind Precip. Elev Updated Type
                   

Watches & Warnings

Severe Thunderstorm Watch
Issued: 8:24 PM CDT May. 28, 2017 – National Weather Service

Severe Thunderstorm Watch 293 remains in effect until 1000 PM CDT
for the following locations


TX
. Texas counties included are

Anderson Atascosa Austin
Bandera Bastrop Bell
Bexar blanco Brazos
Burleson Burnet Caldwell
Colorado Comal Coryell
DeWitt Dimmit Edwards
Falls Fayette Freestone
frio Gillespie Gonzales
Grimes Guadalupe Hays
Henderson Houston Karnes
Kaufman Kendall Kerr
Kinney Lampasas Lavaca
Lee Leon Limestone
Llano McLennan Madison
Maverick Medina Milam
Montgomery Navarro Polk
rains real Robertson
San Jacinto Travis Trinity
Uvalde Val Verde Van Zandt
Walker Waller Washington
Williamson Wilson Zavala